sensor_id;sensor_type;location;lat;lon;timestamp;P1;durP1;ratioP1;P2;durP2;ratioP2
11854;SDS011;5987;53.140;8.904;2022-07-23T00:02:43;6.60;;;3.27;;
11854;SDS011;5987;53.140;8.904;2022-07-23T00:05:49;3.93;;;2.57;;
11854;SDS011;5987;53.140;8.904;2022-07-23T00:08:52;5.83;;;2.73;;
11854;SDS011;5987;53.140;8.904;2022-07-23T00:11:56;6.03;;;2.73;;
11854;SDS011;5987;53.140;8.904;2022-07-23T00:15:00;6.97;;;2.90;;
11854;SDS011;5987;53.140;8.904;2022-07-23T00:18:04;4.80;;;2.60;;
11854;SDS011;5987;53.140;8.904;2022-07-23T00:21:09;6.30;;;3.57;;
11854;SDS011;5987;53.140;8.904;2022-07-23T00:24:15;5.57;;;3.20;;
11854;SDS011;5987;53.140;8.904;2022-07-23T00:27:19;7.60;;;3.20;;
11854;SDS011;5987;53.140;8.904;2022-07-23T00:30:22;3.20;;;3.00;;
11854;SDS011;5987;53.140;8.904;2022-07-23T00:33:26;3.77;;;3.10;;
11854;SDS011;5987;53.140;8.904;2022-07-23T00:36:32;8.10;;;3.53;;
11854;SDS011;5987;53.140;8.904;2022-07-23T00:39:36;6.63;;;3.27;;
11854;SDS011;5987;53.140;8.904;2022-07-23T00:42:39;4.70;;;3.27;;
11854;SDS011;5987;53.140;8.904;2022-07-23T00:45:43;4.97;;;2.87;;
11854;SDS011;5987;53.140;8.904;2022-07-23T00:48:47;9.43;;;3.53;;
11854;SDS011;5987;53.140;8.904;2022-07-23T00:51:53;6.33;;;2.80;;
11854;SDS011;5987;53.140;8.904;2022-07-23T00:54:58;4.17;;;3.07;;
11854;SDS011;5987;53.140;8.904;2022-07-23T00:58:02;5.93;;;3.17;;
11854;SDS011;5987;53.140;8.904;2022-07-23T01:01:07;4.80;;;2.70;;
11854;SDS011;5987;53.140;8.904;2022-07-23T01:04:11;2.60;;;2.40;;
11854;SDS011;5987;53.140;8.904;2022-07-23T01:07:18;5.17;;;2.87;;
11854;SDS011;5987;53.140;8.904;2022-07-23T01:10:23;6.87;;;3.33;;
11854;SDS011;5987;53.140;8.904;2022-07-23T01:13:33;6.97;;;3.37;;
11854;SDS011;5987;53.140;8.904;2022-07-23T01:16:37;4.47;;;2.97;;
11854;SDS011;5987;53.140;8.904;2022-07-23T01:19:41;4.17;;;3.03;;
11854;SDS011;5987;53.140;8.904;2022-07-23T01:22:46;4.97;;;2.73;;
11854;SDS011;5987;53.140;8.904;2022-07-23T01:25:51;5.37;;;3.23;;
11854;SDS011;5987;53.140;8.904;2022-07-23T01:28:56;5.43;;;3.13;;
11854;SDS011;5987;53.140;8.904;2022-07-23T01:32:01;7.27;;;3.10;;
11854;SDS011;5987;53.140;8.904;2022-07-23T01:35:05;6.33;;;3.37;;
11854;SDS011;5987;53.140;8.904;2022-07-23T01:38:11;6.43;;;3.50;;
11854;SDS011;5987;53.140;8.904;2022-07-23T01:41:15;6.83;;;3.50;;
11854;SDS011;5987;53.140;8.904;2022-07-23T01:44:19;4.77;;;3.30;;
11854;SDS011;5987;53.140;8.904;2022-07-23T01:47:23;9.33;;;3.80;;
11854;SDS011;5987;53.140;8.904;2022-07-23T01:50:26;7.37;;;3.77;;
11854;SDS011;5987;53.140;8.904;2022-07-23T01:53:31;3.43;;;3.13;;
11854;SDS011;5987;53.140;8.904;2022-07-23T01:56:35;6.57;;;3.30;;
11854;SDS011;5987;53.140;8.904;2022-07-23T01:59:39;6.40;;;3.53;;
11854;SDS011;5987;53.140;8.904;2022-07-23T02:02:42;6.10;;;3.50;;
11854;SDS011;5987;53.140;8.904;2022-07-23T02:05:46;7.63;;;3.77;;
11854;SDS011;5987;53.140;8.904;2022-07-23T02:08:51;5.50;;;3.90;;
11854;SDS011;5987;53.140;8.904;2022-07-23T02:11:55;7.60;;;4.23;;
11854;SDS011;5987;53.140;8.904;2022-07-23T02:14:59;6.07;;;3.73;;
11854;SDS011;5987;53.140;8.904;2022-07-23T02:18:02;9.33;;;3.00;;
11854;SDS011;5987;53.140;8.904;2022-07-23T02:21:07;6.70;;;3.57;;
11854;SDS011;5987;53.140;8.904;2022-07-23T02:24:12;5.47;;;3.50;;
11854;SDS011;5987;53.140;8.904;2022-07-23T02:27:15;4.37;;;3.13;;
11854;SDS011;5987;53.140;8.904;2022-07-23T02:30:19;7.13;;;3.70;;
11854;SDS011;5987;53.140;8.904;2022-07-23T02:33:23;9.83;;;3.77;;
11854;SDS011;5987;53.140;8.904;2022-07-23T02:36:27;6.10;;;3.53;;
11854;SDS011;5987;53.140;8.904;2022-07-23T02:39:32;5.73;;;2.93;;
11854;SDS011;5987;53.140;8.904;2022-07-23T02:42:36;6.37;;;3.73;;
11854;SDS011;5987;53.140;8.904;2022-07-23T02:45:39;4.57;;;3.60;;
11854;SDS011;5987;53.140;8.904;2022-07-23T02:48:43;4.20;;;3.60;;
11854;SDS011;5987;53.140;8.904;2022-07-23T02:51:47;5.53;;;3.20;;
11854;SDS011;5987;53.140;8.904;2022-07-23T02:54:52;6.03;;;3.73;;
11854;SDS011;5987;53.140;8.904;2022-07-23T02:57:56;5.70;;;3.87;;
11854;SDS011;5987;53.140;8.904;2022-07-23T03:01:00;4.50;;;3.40;;
11854;SDS011;5987;53.140;8.904;2022-07-23T03:04:04;5.33;;;3.27;;
11854;SDS011;5987;53.140;8.904;2022-07-23T03:07:07;6.47;;;3.57;;
11854;SDS011;5987;53.140;8.904;2022-07-23T03:10:12;6.33;;;3.63;;
11854;SDS011;5987;53.140;8.904;2022-07-23T03:13:16;6.20;;;4.17;;
11854;SDS011;5987;53.140;8.904;2022-07-23T03:16:20;5.97;;;3.77;;
11854;SDS011;5987;53.140;8.904;2022-07-23T03:19:24;6.77;;;4.27;;
11854;SDS011;5987;53.140;8.904;2022-07-23T03:22:27;8.10;;;4.23;;
11854;SDS011;5987;53.140;8.904;2022-07-23T03:25:33;7.43;;;4.00;;
11854;SDS011;5987;53.140;8.904;2022-07-23T03:28:36;4.47;;;4.07;;
11854;SDS011;5987;53.140;8.904;2022-07-23T03:31:40;5.73;;;3.90;;
11854;SDS011;5987;53.140;8.904;2022-07-23T03:34:44;8.17;;;4.53;;
11854;SDS011;5987;53.140;8.904;2022-07-23T03:37:48;6.73;;;4.20;;
11854;SDS011;5987;53.140;8.904;2022-07-23T03:40:53;8.37;;;4.97;;
11854;SDS011;5987;53.140;8.904;2022-07-23T03:43:57;5.53;;;4.60;;
11854;SDS011;5987;53.140;8.904;2022-07-23T03:47:00;6.43;;;4.57;;
11854;SDS011;5987;53.140;8.904;2022-07-23T03:50:06;6.40;;;4.60;;
11854;SDS011;5987;53.140;8.904;2022-07-23T03:53:10;5.37;;;4.30;;
11854;SDS011;5987;53.140;8.904;2022-07-23T03:56:15;6.63;;;4.97;;
11854;SDS011;5987;53.140;8.904;2022-07-23T03:59:19;7.17;;;5.47;;
11854;SDS011;5987;53.140;8.904;2022-07-23T04:02:24;9.50;;;4.63;;
11854;SDS011;5987;53.140;8.904;2022-07-23T04:05:28;5.83;;;4.70;;
11854;SDS011;5987;53.140;8.904;2022-07-23T04:08:32;7.80;;;5.20;;
11854;SDS011;5987;53.140;8.904;2022-07-23T04:11:37;9.43;;;5.30;;
11854;SDS011;5987;53.140;8.904;2022-07-23T04:14:41;9.87;;;5.70;;
11854;SDS011;5987;53.140;8.904;2022-07-23T04:17:45;9.57;;;5.90;;
11854;SDS011;5987;53.140;8.904;2022-07-23T04:20:50;9.70;;;5.60;;
11854;SDS011;5987;53.140;8.904;2022-07-23T04:23:54;11.27;;;5.97;;
11854;SDS011;5987;53.140;8.904;2022-07-23T04:26:59;10.70;;;5.30;;
11854;SDS011;5987;53.140;8.904;2022-07-23T04:30:04;9.23;;;5.83;;
11854;SDS011;5987;53.140;8.904;2022-07-23T04:33:10;9.53;;;5.27;;
11854;SDS011;5987;53.140;8.904;2022-07-23T04:36:14;8.47;;;5.67;;
11854;SDS011;5987;53.140;8.904;2022-07-23T04:39:17;8.17;;;5.30;;
11854;SDS011;5987;53.140;8.904;2022-07-23T04:42:23;9.43;;;5.63;;
11854;SDS011;5987;53.140;8.904;2022-07-23T04:45:26;8.33;;;5.50;;
11854;SDS011;5987;53.140;8.904;2022-07-23T04:48:31;8.97;;;5.73;;
11854;SDS011;5987;53.140;8.904;2022-07-23T04:51:36;8.30;;;6.03;;
11854;SDS011;5987;53.140;8.904;2022-07-23T04:54:40;7.83;;;5.73;;
11854;SDS011;5987;53.140;8.904;2022-07-23T04:57:45;8.23;;;6.07;;
11854;SDS011;5987;53.140;8.904;2022-07-23T05:00:49;8.30;;;5.70;;
11854;SDS011;5987;53.140;8.904;2022-07-23T05:03:53;8.63;;;5.47;;
11854;SDS011;5987;53.140;8.904;2022-07-23T05:06:57;8.17;;;5.37;;
11854;SDS011;5987;53.140;8.904;2022-07-23T05:10:01;5.70;;;5.10;;
11854;SDS011;5987;53.140;8.904;2022-07-23T05:13:06;8.40;;;4.63;;
11854;SDS011;5987;53.140;8.904;2022-07-23T05:16:10;9.80;;;4.60;;
11854;SDS011;5987;53.140;8.904;2022-07-23T05:19:13;5.77;;;4.27;;
11854;SDS011;5987;53.140;8.904;2022-07-23T05:22:17;7.90;;;4.50;;
11854;SDS011;5987;53.140;8.904;2022-07-23T05:25:21;4.97;;;4.30;;
11854;SDS011;5987;53.140;8.904;2022-07-23T05:28:26;6.33;;;4.23;;
11854;SDS011;5987;53.140;8.904;2022-07-23T05:31:30;8.00;;;4.63;;
11854;SDS011;5987;53.140;8.904;2022-07-23T05:34:34;7.53;;;4.77;;
11854;SDS011;5987;53.140;8.904;2022-07-23T05:37:37;5.17;;;4.17;;
11854;SDS011;5987;53.140;8.904;2022-07-23T05:40:41;4.87;;;3.93;;
11854;SDS011;5987;53.140;8.904;2022-07-23T05:43:46;5.23;;;4.00;;
11854;SDS011;5987;53.140;8.904;2022-07-23T05:46:50;7.27;;;3.83;;
11854;SDS011;5987;53.140;8.904;2022-07-23T05:49:54;5.60;;;4.23;;
11854;SDS011;5987;53.140;8.904;2022-07-23T05:53:04;4.03;;;3.63;;
11854;SDS011;5987;53.140;8.904;2022-07-23T05:56:07;6.90;;;3.90;;
11854;SDS011;5987;53.140;8.904;2022-07-23T05:59:13;5.70;;;4.20;;
11854;SDS011;5987;53.140;8.904;2022-07-23T06:02:18;4.53;;;3.60;;
11854;SDS011;5987;53.140;8.904;2022-07-23T06:05:21;4.30;;;3.90;;
11854;SDS011;5987;53.140;8.904;2022-07-23T06:08:26;5.47;;;4.40;;
11854;SDS011;5987;53.140;8.904;2022-07-23T06:11:30;6.87;;;3.80;;
11854;SDS011;5987;53.140;8.904;2022-07-23T06:14:36;6.17;;;4.77;;
11854;SDS011;5987;53.140;8.904;2022-07-23T06:17:39;7.87;;;5.17;;
11854;SDS011;5987;53.140;8.904;2022-07-23T06:20:43;6.00;;;4.50;;
11854;SDS011;5987;53.140;8.904;2022-07-23T06:23:51;5.80;;;5.27;;
11854;SDS011;5987;53.140;8.904;2022-07-23T06:26:55;7.17;;;5.30;;
11854;SDS011;5987;53.140;8.904;2022-07-23T06:30:00;9.63;;;4.90;;
11854;SDS011;5987;53.140;8.904;2022-07-23T06:33:04;7.07;;;4.47;;
11854;SDS011;5987;53.140;8.904;2022-07-23T06:36:08;5.27;;;3.87;;
11854;SDS011;5987;53.140;8.904;2022-07-23T06:39:11;7.13;;;3.83;;
11854;SDS011;5987;53.140;8.904;2022-07-23T06:42:16;4.13;;;3.60;;
11854;SDS011;5987;53.140;8.904;2022-07-23T06:45:21;4.20;;;3.77;;
11854;SDS011;5987;53.140;8.904;2022-07-23T06:48:25;7.53;;;4.30;;
11854;SDS011;5987;53.140;8.904;2022-07-23T06:51:30;5.90;;;3.70;;
11854;SDS011;5987;53.140;8.904;2022-07-23T06:54:34;5.47;;;3.40;;
11854;SDS011;5987;53.140;8.904;2022-07-23T06:57:38;6.80;;;3.30;;
11854;SDS011;5987;53.140;8.904;2022-07-23T07:00:43;6.27;;;3.00;;
11854;SDS011;5987;53.140;8.904;2022-07-23T07:03:47;5.37;;;2.77;;
11854;SDS011;5987;53.140;8.904;2022-07-23T07:06:51;4.00;;;2.63;;
11854;SDS011;5987;53.140;8.904;2022-07-23T07:09:54;3.93;;;1.60;;
11854;SDS011;5987;53.140;8.904;2022-07-23T07:12:58;3.93;;;1.10;;
11854;SDS011;5987;53.140;8.904;2022-07-23T07:16:04;1.53;;;1.10;;
11854;SDS011;5987;53.140;8.904;2022-07-23T07:19:08;6.37;;;1.70;;
11854;SDS011;5987;53.140;8.904;2022-07-23T07:22:12;2.17;;;1.00;;
11854;SDS011;5987;53.140;8.904;2022-07-23T07:25:15;1.20;;;1.10;;
11854;SDS011;5987;53.140;8.904;2022-07-23T07:28:19;2.90;;;1.20;;
11854;SDS011;5987;53.140;8.904;2022-07-23T07:31:24;5.43;;;1.50;;
11854;SDS011;5987;53.140;8.904;2022-07-23T07:34:28;3.07;;;1.43;;
11854;SDS011;5987;53.140;8.904;2022-07-23T07:37:32;1.77;;;1.20;;
11854;SDS011;5987;53.140;8.904;2022-07-23T07:40:36;2.93;;;1.40;;
11854;SDS011;5987;53.140;8.904;2022-07-23T07:43:39;2.13;;;1.20;;
11854;SDS011;5987;53.140;8.904;2022-07-23T07:46:44;3.73;;;1.00;;
11854;SDS011;5987;53.140;8.904;2022-07-23T07:49:48;3.57;;;1.27;;
11854;SDS011;5987;53.140;8.904;2022-07-23T07:52:53;1.77;;;1.00;;
11854;SDS011;5987;53.140;8.904;2022-07-23T07:55:56;1.80;;;1.00;;
11854;SDS011;5987;53.140;8.904;2022-07-23T07:59:00;2.73;;;1.10;;
11854;SDS011;5987;53.140;8.904;2022-07-23T08:02:06;1.97;;;1.00;;
11854;SDS011;5987;53.140;8.904;2022-07-23T08:05:10;2.80;;;1.30;;
11854;SDS011;5987;53.140;8.904;2022-07-23T08:08:14;2.27;;;1.23;;
11854;SDS011;5987;53.140;8.904;2022-07-23T08:11:17;2.33;;;1.10;;
11854;SDS011;5987;53.140;8.904;2022-07-23T08:14:21;4.37;;;1.53;;
11854;SDS011;5987;53.140;8.904;2022-07-23T08:17:27;3.17;;;1.30;;
11854;SDS011;5987;53.140;8.904;2022-07-23T08:20:30;1.40;;;1.27;;
11854;SDS011;5987;53.140;8.904;2022-07-23T08:23:34;3.13;;;1.17;;
11854;SDS011;5987;53.140;8.904;2022-07-23T08:26:38;2.67;;;1.17;;
11854;SDS011;5987;53.140;8.904;2022-07-23T08:29:42;1.60;;;0.90;;
11854;SDS011;5987;53.140;8.904;2022-07-23T08:32:51;1.40;;;1.10;;
11854;SDS011;5987;53.140;8.904;2022-07-23T08:35:58;1.60;;;1.00;;
11854;SDS011;5987;53.140;8.904;2022-07-23T08:39:04;0.97;;;0.87;;
11854;SDS011;5987;53.140;8.904;2022-07-23T08:42:08;1.73;;;0.97;;
11854;SDS011;5987;53.140;8.904;2022-07-23T08:45:12;3.33;;;0.80;;
11854;SDS011;5987;53.140;8.904;2022-07-23T08:48:21;0.93;;;0.63;;
11854;SDS011;5987;53.140;8.904;2022-07-23T08:51:28;1.50;;;0.90;;
11854;SDS011;5987;53.140;8.904;2022-07-23T08:54:32;2.53;;;0.80;;
11854;SDS011;5987;53.140;8.904;2022-07-23T08:57:37;1.23;;;0.80;;
11854;SDS011;5987;53.140;8.904;2022-07-23T09:00:41;3.37;;;0.83;;
11854;SDS011;5987;53.140;8.904;2022-07-23T09:03:48;1.07;;;0.77;;
11854;SDS011;5987;53.140;8.904;2022-07-23T09:06:52;2.73;;;0.80;;
11854;SDS011;5987;53.140;8.904;2022-07-23T09:10:04;2.60;;;0.73;;
11854;SDS011;5987;53.140;8.904;2022-07-23T09:13:24;2.10;;;0.83;;
11854;SDS011;5987;53.140;8.904;2022-07-23T09:16:35;3.20;;;0.77;;
11854;SDS011;5987;53.140;8.904;2022-07-23T09:19:40;0.87;;;0.80;;
11854;SDS011;5987;53.140;8.904;2022-07-23T09:22:45;1.27;;;0.77;;
11854;SDS011;5987;53.140;8.904;2022-07-23T09:25:50;0.63;;;0.63;;
11854;SDS011;5987;53.140;8.904;2022-07-23T09:28:55;2.07;;;0.77;;
11854;SDS011;5987;53.140;8.904;2022-07-23T09:32:02;0.73;;;0.67;;
11854;SDS011;5987;53.140;8.904;2022-07-23T09:35:10;0.53;;;0.53;;
11854;SDS011;5987;53.140;8.904;2022-07-23T09:38:14;2.00;;;0.60;;
11854;SDS011;5987;53.140;8.904;2022-07-23T09:41:19;0.80;;;0.67;;
11854;SDS011;5987;53.140;8.904;2022-07-23T09:44:25;2.53;;;0.70;;
11854;SDS011;5987;53.140;8.904;2022-07-23T09:47:31;4.93;;;0.77;;
11854;SDS011;5987;53.140;8.904;2022-07-23T09:50:36;1.00;;;0.70;;
11854;SDS011;5987;53.140;8.904;2022-07-23T09:53:40;0.97;;;0.60;;
11854;SDS011;5987;53.140;8.904;2022-07-23T09:56:44;0.50;;;0.40;;
11854;SDS011;5987;53.140;8.904;2022-07-23T09:59:50;0.40;;;0.40;;
11854;SDS011;5987;53.140;8.904;2022-07-23T10:02:54;1.00;;;0.60;;
11854;SDS011;5987;53.140;8.904;2022-07-23T10:06:01;1.40;;;0.57;;
11854;SDS011;5987;53.140;8.904;2022-07-23T10:09:05;1.63;;;0.50;;
11854;SDS011;5987;53.140;8.904;2022-07-23T10:12:14;2.60;;;0.50;;
11854;SDS011;5987;53.140;8.904;2022-07-23T10:15:24;1.10;;;0.50;;
11854;SDS011;5987;53.140;8.904;2022-07-23T10:18:29;1.27;;;0.57;;
11854;SDS011;5987;53.140;8.904;2022-07-23T10:21:36;2.00;;;0.40;;
11854;SDS011;5987;53.140;8.904;2022-07-23T10:24:50;4.10;;;0.70;;
11854;SDS011;5987;53.140;8.904;2022-07-23T10:28:12;0.40;;;0.40;;
11854;SDS011;5987;53.140;8.904;2022-07-23T10:31:52;1.27;;;0.60;;
11854;SDS011;5987;53.140;8.904;2022-07-23T10:35:07;1.30;;;0.60;;
11854;SDS011;5987;53.140;8.904;2022-07-23T10:38:23;1.53;;;0.60;;
11854;SDS011;5987;53.140;8.904;2022-07-23T10:41:34;1.43;;;0.50;;
11854;SDS011;5987;53.140;8.904;2022-07-23T10:44:41;0.70;;;0.60;;
11854;SDS011;5987;53.140;8.904;2022-07-23T10:47:47;2.67;;;0.90;;
11854;SDS011;5987;53.140;8.904;2022-07-23T10:51:05;0.55;;;0.40;;
11854;SDS011;5987;53.140;8.904;2022-07-23T10:54:21;0.50;;;0.50;;
11854;SDS011;5987;53.140;8.904;2022-07-23T10:57:31;1.10;;;0.73;;
11854;SDS011;5987;53.140;8.904;2022-07-23T11:00:51;0.70;;;0.53;;
11854;SDS011;5987;53.140;8.904;2022-07-23T11:03:57;0.97;;;0.60;;
11854;SDS011;5987;53.140;8.904;2022-07-23T11:07:08;0.70;;;0.70;;
11854;SDS011;5987;53.140;8.904;2022-07-23T11:13:39;1.60;;;0.67;;
11854;SDS011;5987;53.140;8.904;2022-07-23T11:16:50;1.10;;;0.60;;
11854;SDS011;5987;53.140;8.904;2022-07-23T11:20:16;1.43;;;0.60;;
11854;SDS011;5987;53.140;8.904;2022-07-23T11:23:22;0.60;;;0.53;;
11854;SDS011;5987;53.140;8.904;2022-07-23T11:26:49;1.37;;;1.17;;
11854;SDS011;5987;53.140;8.904;2022-07-23T11:29:57;3.97;;;1.00;;
11854;SDS011;5987;53.140;8.904;2022-07-23T11:33:15;0.77;;;0.50;;
11854;SDS011;5987;53.140;8.904;2022-07-23T11:36:23;1.13;;;0.70;;
11854;SDS011;5987;53.140;8.904;2022-07-23T11:39:28;0.80;;;0.60;;
11854;SDS011;5987;53.140;8.904;2022-07-23T11:42:35;1.33;;;0.53;;
11854;SDS011;5987;53.140;8.904;2022-07-23T11:45:41;1.37;;;0.70;;
11854;SDS011;5987;53.140;8.904;2022-07-23T11:48:47;1.23;;;0.63;;
11854;SDS011;5987;53.140;8.904;2022-07-23T11:52:06;2.27;;;0.80;;
11854;SDS011;5987;53.140;8.904;2022-07-23T11:55:12;0.67;;;0.67;;
11854;SDS011;5987;53.140;8.904;2022-07-23T11:58:19;0.90;;;0.50;;
11854;SDS011;5987;53.140;8.904;2022-07-23T12:01:24;0.73;;;0.60;;
11854;SDS011;5987;53.140;8.904;2022-07-23T12:04:36;0.53;;;0.40;;
11854;SDS011;5987;53.140;8.904;2022-07-23T12:07:41;2.70;;;0.73;;
11854;SDS011;5987;53.140;8.904;2022-07-23T12:10:50;2.00;;;0.80;;
11854;SDS011;5987;53.140;8.904;2022-07-23T12:13:58;1.63;;;0.50;;
11854;SDS011;5987;53.140;8.904;2022-07-23T12:17:06;1.43;;;0.70;;
11854;SDS011;5987;53.140;8.904;2022-07-23T12:20:13;1.43;;;0.77;;
11854;SDS011;5987;53.140;8.904;2022-07-23T12:23:20;0.60;;;0.50;;
11854;SDS011;5987;53.140;8.904;2022-07-23T12:26:25;1.20;;;0.80;;
11854;SDS011;5987;53.140;8.904;2022-07-23T12:29:35;1.97;;;0.60;;
11854;SDS011;5987;53.140;8.904;2022-07-23T12:32:42;1.33;;;0.80;;
11854;SDS011;5987;53.140;8.904;2022-07-23T12:35:48;0.40;;;0.40;;
11854;SDS011;5987;53.140;8.904;2022-07-23T12:38:52;0.60;;;0.60;;
11854;SDS011;5987;53.140;8.904;2022-07-23T12:41:56;8.63;;;0.97;;
11854;SDS011;5987;53.140;8.904;2022-07-23T12:45:08;0.57;;;0.50;;
11854;SDS011;5987;53.140;8.904;2022-07-23T12:48:16;0.43;;;0.40;;
11854;SDS011;5987;53.140;8.904;2022-07-23T12:51:28;1.13;;;0.70;;
11854;SDS011;5987;53.140;8.904;2022-07-23T12:54:34;2.70;;;0.60;;
11854;SDS011;5987;53.140;8.904;2022-07-23T12:57:47;1.03;;;0.40;;
11854;SDS011;5987;53.140;8.904;2022-07-23T13:00:54;1.63;;;0.93;;
11854;SDS011;5987;53.140;8.904;2022-07-23T13:04:25;0.43;;;0.40;;
11854;SDS011;5987;53.140;8.904;2022-07-23T13:07:29;1.43;;;0.60;;
11854;SDS011;5987;53.140;8.904;2022-07-23T13:10:33;1.23;;;1.13;;
11854;SDS011;5987;53.140;8.904;2022-07-23T13:13:37;2.10;;;0.60;;
11854;SDS011;5987;53.140;8.904;2022-07-23T13:16:42;1.63;;;0.70;;
11854;SDS011;5987;53.140;8.904;2022-07-23T13:19:49;1.23;;;0.60;;
11854;SDS011;5987;53.140;8.904;2022-07-23T13:22:52;1.50;;;0.73;;
11854;SDS011;5987;53.140;8.904;2022-07-23T13:25:56;1.37;;;0.70;;
11854;SDS011;5987;53.140;8.904;2022-07-23T13:29:03;1.63;;;0.60;;
11854;SDS011;5987;53.140;8.904;2022-07-23T13:32:11;3.30;;;0.83;;
11854;SDS011;5987;53.140;8.904;2022-07-23T13:35:15;0.70;;;0.47;;
11854;SDS011;5987;53.140;8.904;2022-07-23T13:38:20;0.70;;;0.60;;
11854;SDS011;5987;53.140;8.904;2022-07-23T13:41:26;0.90;;;0.67;;
11854;SDS011;5987;53.140;8.904;2022-07-23T13:44:31;1.07;;;0.70;;
11854;SDS011;5987;53.140;8.904;2022-07-23T13:47:36;1.63;;;0.73;;
11854;SDS011;5987;53.140;8.904;2022-07-23T13:50:40;1.30;;;0.80;;
11854;SDS011;5987;53.140;8.904;2022-07-23T13:53:45;0.60;;;0.43;;
11854;SDS011;5987;53.140;8.904;2022-07-23T13:56:50;1.07;;;0.50;;
11854;SDS011;5987;53.140;8.904;2022-07-23T13:59:54;0.53;;;0.53;;
11854;SDS011;5987;53.140;8.904;2022-07-23T14:03:00;1.13;;;0.60;;
11854;SDS011;5987;53.140;8.904;2022-07-23T14:06:04;0.93;;;0.60;;
11854;SDS011;5987;53.140;8.904;2022-07-23T14:09:17;0.93;;;0.67;;
11854;SDS011;5987;53.140;8.904;2022-07-23T14:12:20;1.10;;;0.60;;
11854;SDS011;5987;53.140;8.904;2022-07-23T14:15:25;1.73;;;0.70;;
11854;SDS011;5987;53.140;8.904;2022-07-23T14:18:32;2.03;;;0.70;;
11854;SDS011;5987;53.140;8.904;2022-07-23T14:21:36;1.90;;;0.53;;
11854;SDS011;5987;53.140;8.904;2022-07-23T14:24:40;1.90;;;0.70;;
11854;SDS011;5987;53.140;8.904;2022-07-23T14:27:44;0.77;;;0.60;;
11854;SDS011;5987;53.140;8.904;2022-07-23T14:30:49;1.10;;;0.70;;
11854;SDS011;5987;53.140;8.904;2022-07-23T14:33:54;0.97;;;0.53;;
11854;SDS011;5987;53.140;8.904;2022-07-23T14:36:58;1.07;;;0.50;;
11854;SDS011;5987;53.140;8.904;2022-07-23T14:40:02;1.40;;;0.50;;
11854;SDS011;5987;53.140;8.904;2022-07-23T14:43:09;1.23;;;0.50;;
11854;SDS011;5987;53.140;8.904;2022-07-23T14:46:13;1.90;;;0.60;;
11854;SDS011;5987;53.140;8.904;2022-07-23T14:49:20;1.00;;;0.50;;
11854;SDS011;5987;53.140;8.904;2022-07-23T14:52:27;3.37;;;0.63;;
11854;SDS011;5987;53.140;8.904;2022-07-23T14:55:31;1.20;;;0.50;;
11854;SDS011;5987;53.140;8.904;2022-07-23T14:58:35;0.97;;;0.50;;
11854;SDS011;5987;53.140;8.904;2022-07-23T15:01:39;1.40;;;0.90;;
11854;SDS011;5987;53.140;8.904;2022-07-23T15:04:44;1.43;;;0.80;;
11854;SDS011;5987;53.140;8.904;2022-07-23T15:07:48;0.80;;;0.70;;
11854;SDS011;5987;53.140;8.904;2022-07-23T15:10:53;1.27;;;0.73;;
11854;SDS011;5987;53.140;8.904;2022-07-23T15:13:57;1.37;;;0.60;;
11854;SDS011;5987;53.140;8.904;2022-07-23T15:17:01;3.63;;;0.80;;
11854;SDS011;5987;53.140;8.904;2022-07-23T15:20:07;1.17;;;0.70;;
11854;SDS011;5987;53.140;8.904;2022-07-23T15:23:11;2.37;;;0.73;;
11854;SDS011;5987;53.140;8.904;2022-07-23T15:26:16;4.13;;;0.60;;
11854;SDS011;5987;53.140;8.904;2022-07-23T15:29:20;1.33;;;0.60;;
11854;SDS011;5987;53.140;8.904;2022-07-23T15:32:24;1.47;;;0.50;;
11854;SDS011;5987;53.140;8.904;2022-07-23T15:35:29;1.37;;;0.67;;
11854;SDS011;5987;53.140;8.904;2022-07-23T15:38:35;0.93;;;0.33;;
11854;SDS011;5987;53.140;8.904;2022-07-23T15:41:38;2.47;;;0.70;;
11854;SDS011;5987;53.140;8.904;2022-07-23T15:44:44;1.80;;;0.60;;
11854;SDS011;5987;53.140;8.904;2022-07-23T15:47:48;1.07;;;0.70;;
11854;SDS011;5987;53.140;8.904;2022-07-23T15:50:53;1.20;;;0.70;;
11854;SDS011;5987;53.140;8.904;2022-07-23T15:54:00;2.47;;;0.60;;
11854;SDS011;5987;53.140;8.904;2022-07-23T15:57:04;2.93;;;1.13;;
11854;SDS011;5987;53.140;8.904;2022-07-23T16:00:09;3.07;;;1.00;;
11854;SDS011;5987;53.140;8.904;2022-07-23T16:03:14;1.07;;;0.73;;
11854;SDS011;5987;53.140;8.904;2022-07-23T16:06:19;1.77;;;0.80;;
11854;SDS011;5987;53.140;8.904;2022-07-23T16:09:23;1.60;;;0.70;;
11854;SDS011;5987;53.140;8.904;2022-07-23T16:12:27;2.33;;;0.70;;
11854;SDS011;5987;53.140;8.904;2022-07-23T16:15:32;1.63;;;0.90;;
11854;SDS011;5987;53.140;8.904;2022-07-23T16:18:36;1.93;;;1.00;;
11854;SDS011;5987;53.140;8.904;2022-07-23T16:21:42;1.90;;;0.90;;
11854;SDS011;5987;53.140;8.904;2022-07-23T16:24:45;1.40;;;0.83;;
11854;SDS011;5987;53.140;8.904;2022-07-23T16:27:49;2.80;;;0.80;;
11854;SDS011;5987;53.140;8.904;2022-07-23T16:30:53;3.63;;;0.93;;
11854;SDS011;5987;53.140;8.904;2022-07-23T16:33:57;3.57;;;1.23;;
11854;SDS011;5987;53.140;8.904;2022-07-23T16:37:02;2.00;;;0.80;;
11854;SDS011;5987;53.140;8.904;2022-07-23T16:40:06;1.77;;;0.90;;
11854;SDS011;5987;53.140;8.904;2022-07-23T16:43:13;0.97;;;0.57;;
11854;SDS011;5987;53.140;8.904;2022-07-23T16:46:16;1.63;;;0.90;;
11854;SDS011;5987;53.140;8.904;2022-07-23T16:49:20;1.03;;;0.87;;
11854;SDS011;5987;53.140;8.904;2022-07-23T16:52:26;2.53;;;0.83;;
11854;SDS011;5987;53.140;8.904;2022-07-23T16:55:30;2.33;;;0.80;;
11854;SDS011;5987;53.140;8.904;2022-07-23T16:58:34;0.87;;;0.60;;
11854;SDS011;5987;53.140;8.904;2022-07-23T17:01:38;2.13;;;0.80;;
11854;SDS011;5987;53.140;8.904;2022-07-23T17:04:42;2.33;;;0.77;;
11854;SDS011;5987;53.140;8.904;2022-07-23T17:07:48;2.03;;;0.70;;
11854;SDS011;5987;53.140;8.904;2022-07-23T17:10:54;1.77;;;0.80;;
11854;SDS011;5987;53.140;8.904;2022-07-23T17:13:58;2.43;;;0.73;;
11854;SDS011;5987;53.140;8.904;2022-07-23T17:17:02;0.60;;;0.60;;
11854;SDS011;5987;53.140;8.904;2022-07-23T17:20:07;1.10;;;0.80;;
11854;SDS011;5987;53.140;8.904;2022-07-23T17:23:14;0.93;;;0.60;;
11854;SDS011;5987;53.140;8.904;2022-07-23T17:26:18;1.53;;;0.90;;
11854;SDS011;5987;53.140;8.904;2022-07-23T17:29:22;0.60;;;0.53;;
11854;SDS011;5987;53.140;8.904;2022-07-23T17:32:26;1.50;;;0.70;;
11854;SDS011;5987;53.140;8.904;2022-07-23T17:35:29;0.93;;;0.67;;
11854;SDS011;5987;53.140;8.904;2022-07-23T17:38:34;2.60;;;0.93;;
11854;SDS011;5987;53.140;8.904;2022-07-23T17:41:38;1.13;;;0.90;;
11854;SDS011;5987;53.140;8.904;2022-07-23T17:44:48;1.27;;;0.70;;
11854;SDS011;5987;53.140;8.904;2022-07-23T17:47:52;4.33;;;1.10;;
11854;SDS011;5987;53.140;8.904;2022-07-23T17:50:56;3.23;;;0.80;;
11854;SDS011;5987;53.140;8.904;2022-07-23T17:54:02;3.00;;;0.90;;
11854;SDS011;5987;53.140;8.904;2022-07-23T17:57:06;2.67;;;1.10;;
11854;SDS011;5987;53.140;8.904;2022-07-23T18:00:12;1.33;;;0.87;;
11854;SDS011;5987;53.140;8.904;2022-07-23T18:03:19;1.60;;;0.60;;
11854;SDS011;5987;53.140;8.904;2022-07-23T18:06:23;1.63;;;0.93;;
11854;SDS011;5987;53.140;8.904;2022-07-23T18:09:28;0.90;;;0.90;;
11854;SDS011;5987;53.140;8.904;2022-07-23T18:12:32;2.43;;;0.90;;
11854;SDS011;5987;53.140;8.904;2022-07-23T18:15:38;2.13;;;1.20;;
11854;SDS011;5987;53.140;8.904;2022-07-23T18:18:42;1.23;;;0.77;;
11854;SDS011;5987;53.140;8.904;2022-07-23T18:21:46;1.30;;;0.90;;
11854;SDS011;5987;53.140;8.904;2022-07-23T18:24:51;1.63;;;1.20;;
11854;SDS011;5987;53.140;8.904;2022-07-23T18:27:55;1.47;;;0.93;;
11854;SDS011;5987;53.140;8.904;2022-07-23T18:30:58;3.63;;;1.47;;
11854;SDS011;5987;53.140;8.904;2022-07-23T18:34:02;1.50;;;0.83;;
11854;SDS011;5987;53.140;8.904;2022-07-23T18:37:06;2.57;;;1.10;;
11854;SDS011;5987;53.140;8.904;2022-07-23T18:40:32;1.30;;;0.90;;
11854;SDS011;5987;53.140;8.904;2022-07-23T18:43:35;2.73;;;1.10;;
11854;SDS011;5987;53.140;8.904;2022-07-23T18:46:40;1.87;;;1.33;;
11854;SDS011;5987;53.140;8.904;2022-07-23T18:49:44;2.53;;;1.20;;
11854;SDS011;5987;53.140;8.904;2022-07-23T18:52:48;3.33;;;1.37;;
11854;SDS011;5987;53.140;8.904;2022-07-23T18:55:53;4.50;;;2.83;;
11854;SDS011;5987;53.140;8.904;2022-07-23T18:58:57;5.03;;;3.20;;